Flight Track Log - Related Links

Times and Time Zones

All times are in EDT time to prevent confusion due to time zone crossing. See the N53685 flight status page for this flight to view local times or setup timezone preferences in your user account.

Time Position Orientation Groundspeed Altitude Reporting Facility
EDT Latitude Longitude Course Direction KTS MPH feet Rate Location/Type
Sun 07:49:55 PM 29.5247 -98.4636 153° Southeast 92 106 1,400  Level Houston Center
Sun 07:50:50 PM 29.5047 -98.4517 153° Southeast 90 104 1,900 486 Climbing Houston Center
Sun 07:51:09 PM 29.4978 -98.4469 149° Southeast 92 106 2,000 393 Climbing Houston Center
Sun 07:51:51 PM 29.4783 -98.4381 158° South 106 122 2,300 387 Climbing Houston Center
Sun 07:52:11 PM 29.4708 -98.4325 147° Southeast 104 120 2,400 400 Climbing Houston Center
Sun 07:52:51 PM 29.4500 -98.4269 167° South 113 130 2,700 387 Climbing Houston Center
Sun 07:53:13 PM 29.4422 -98.4322 211° Southwest 111 128 2,800 436 Climbing Houston Center
Sun 07:53:46 PM 29.4267 -98.4467 219° Southwest 117 135 3,100 387 Climbing Houston Center
Sun 07:54:15 PM 29.4172 -98.4589 228° Southwest 114 131 3,200 448 Climbing Houston Center
Sun 07:54:53 PM 29.4017 -98.4736 220° Southwest 112 129 3,600 484 Climbing Houston Center
Sun 07:55:17 PM 29.3967 -98.4831 239° Southwest 107 123 3,700 393 Climbing Houston Center
Sun 07:55:54 PM 29.3783 -98.4933 206° Southwest 103 119 4,000 484 Climbing Houston Center
Sun 07:56:19 PM 29.3686 -98.4972 199° South 102 117 4,200 400 Climbing Houston Center
Sun 07:56:54 PM 29.3522 -98.5058 205° Southwest 107 123 4,400 387 Climbing Houston Center
Sun 07:57:21 PM 29.3406 -98.5106 199° South 108 124 4,600 404 Climbing Houston Center
Sun 07:58:23 PM 29.3106 -98.5233 200° South 112 129 5,000 379 Climbing Houston Center
Sun 07:58:56 PM 29.2917 -98.5322 202° Southwest 113 130 5,200 387 Climbing Houston Center
Sun 07:59:25 PM 29.2789 -98.5372 199° South 114 131 5,400 393 Climbing Houston Center
Sun 07:59:57 PM 29.2614 -98.5456 203° Southwest 115 132 5,600 387 Climbing Houston Center
Sun 08:00:27 PM 29.2494 -98.5514 203° Southwest 115 132 5,800 400 Climbing Houston Center
Sun 08:00:57 PM 29.2311 -98.5586 199° South 115 132 6,000 387 Climbing Houston Center
Sun 08:01:29 PM 29.2169 -98.5650 201° Southwest 115 132 6,200 393 Climbing Houston Center
Sun 08:01:58 PM 29.2028 -98.5717 202° Southwest 116 133 6,400 387 Climbing Houston Center
Sun 08:02:31 PM 29.1872 -98.5806 207° Southwest 117 135 6,600 358 Climbing Houston Center
Sun 08:03:05 PM 29.1667 -98.5903 202° Southwest 118 136 6,800 387 Climbing Houston Center
Sun 08:03:33 PM 29.1544 -98.5958 202° Southwest 118 136 7,000 400 Climbing Houston Center
Sun 08:04:05 PM 29.1364 -98.6033 200° South 118 136 7,200 387 Climbing Houston Center
Sun 08:04:35 PM 29.1228 -98.6086 199° South 121 139 7,400 327 Climbing Houston Center
Sun 08:05:00 PM 29.1061 -98.6142 196° South 120 138 7,500 295 Climbing Houston Center
Sun 08:05:36 PM 29.0906 -98.6208 201° Southwest 123 142 7,700 429 Climbing Houston Center
Sun 08:06:38 PM 29.0578 -98.6361 202° Southwest 119 137 8,200 435 Climbing Houston Center
Sun 08:07:40 PM 29.0272 -98.6506 202° Southwest 118 136 8,600 387 Climbing Houston Center
Sun 08:08:42 PM 28.9953 -98.6647 201° Southwest 116 133 9,000 387 Climbing Houston Center
Sun 08:09:44 PM 28.9647 -98.6781 201° Southwest 116 133 9,400 387 Climbing Houston Center
Sun 08:10:46 PM 28.9347 -98.6908 200° South 116 133 9,800 339 Climbing Houston Center
Sun 08:11:48 PM 28.9033 -98.7044 201° Southwest 118 136 10,100 97 Climbing Houston Center
Sun 08:12:50 PM 28.8667 -98.7222 203° Southwest 132 152 10,000 -49 Descending Houston Center
Sun 08:13:51 PM 28.8319 -98.7383 202° Southwest 126 145 10,000  Level Houston Center
Sun 08:14:53 PM 28.7994 -98.7533 202° Southwest 124 143 10,000  Level Houston Center
Sun 08:15:55 PM 28.7678 -98.7675 201° Southwest 121 139 10,000  Level Houston Center
Sun 08:16:57 PM 28.7336 -98.7847 204° Southwest 123 142 10,000  Level Houston Center
Sun 08:17:59 PM 28.7022 -98.7994 202° Southwest 122 140 10,000  Level Houston Center
Sun 08:19:01 PM 28.6711 -98.8156 204° Southwest 131 151 10,000  Level Houston Center
Sun 08:20:03 PM 28.6389 -98.8319 204° Southwest 128 147 10,000 49 Level Houston Center
Sun 08:21:04 PM 28.6069 -98.8472 203° Southwest 126 145 10,100 49 Climbing Houston Center
Sun 08:22:06 PM 28.5747 -98.8647 205° Southwest 129 148 10,100  Level Houston Center
Sun 08:23:08 PM 28.5356 -98.8850 204° Southwest 130 150 10,100  Level Houston Center
Sun 08:24:10 PM 28.5031 -98.9011 204° Southwest 129 148 10,100  Level Houston Center
Sun 08:25:12 PM 28.4706 -98.9183 205° Southwest 129 148 10,100  Level Houston Center
Sun 08:26:14 PM 28.4375 -98.9336 202° Southwest 128 147 10,100  Level Houston Center
Sun 08:27:16 PM 28.4047 -98.9519 206° Southwest 130 150 10,100  Level Houston Center
Sun 08:28:17 PM 28.3700 -98.9683 203° Southwest 132 152 10,100  Level Houston Center
Sun 08:29:19 PM 28.3297 -98.9894 205° Southwest 134 154 10,100  Level Houston Center
Sun 08:30:21 PM 28.2956 -99.0061 203° Southwest 134 154 10,100  Level Houston Center
Sun 08:31:23 PM 28.2614 -99.0208 201° Southwest 133 153 10,100  Level Houston Center
Sun 08:32:25 PM 28.2281 -99.0389 206° Southwest 132 152 10,100  Level Houston Center
Sun 08:33:27 PM 28.1936 -99.0558 203° Southwest 134 154 10,100  Level Houston Center
Sun 08:34:29 PM 28.1617 -99.0736 206° Southwest 131 151 10,100  Level Houston Center
Sun 08:35:31 PM 28.1233 -99.0953 206° Southwest 129 148 10,100  Level Houston Center
Sun 08:36:33 PM 28.0908 -99.1133 206° Southwest 129 148 10,100  Level Houston Center
Sun 08:37:35 PM 28.0589 -99.1314 207° Southwest 129 148 10,100  Level Houston Center
Sun 08:38:36 PM 28.0275 -99.1500 208° Southwest 128 147 10,100  Level Houston Center
Sun 08:39:38 PM 27.9936 -99.1650 201° Southwest 129 148 10,100  Level Houston Center
Sun 08:40:40 PM 27.9603 -99.1803 202° Southwest 130 150 10,100  Level Houston Center
Sun 08:41:42 PM 27.9203 -99.1997 203° Southwest 131 151 10,100  Level Houston Center
Sun 08:42:44 PM 27.8872 -99.2156 203° Southwest 129 148 10,100  Level Houston Center
Sun 08:43:46 PM 27.8547 -99.2317 204° Southwest 128 147 10,100  Level Houston Center
Sun 08:44:47 PM 27.8192 -99.2478 202° Southwest 132 152 10,100  Level Houston Center
Sun 08:45:49 PM 27.7853 -99.2653 205° Southwest 134 154 10,100  Level Houston Center
Sun 08:46:51 PM 27.7522 -99.2828 205° Southwest 133 153 10,100  Level Houston Center
Sun 08:47:52 PM 27.7192 -99.3003 205° Southwest 132 152 10,100  Level Houston Center
Sun 08:48:54 PM 27.6797 -99.3211 205° Southwest 132 152 10,100  Level Houston Center
Sun 08:49:55 PM 27.6467 -99.3381 204° Southwest 131 151 10,100  Level Houston Center
Sun 08:50:57 PM 27.6139 -99.3556 205° Southwest 131 151 10,100  Level Houston Center
Sun 08:51:59 PM 27.5817 -99.3733 206° Southwest 130 150 10,100  Level Houston Center
Sun 08:53:00 PM 27.5486 -99.3911 205° Southwest 130 150 10,100  Level Houston Center
Sun 08:54:02 PM 27.5156 -99.4081 204° Southwest 131 151 10,100  Level Houston Center
Sun 08:55:03 PM 27.4756 -99.4289 205° Southwest 132 152 10,100  Level Houston Center
Sun 08:56:05 PM 27.4450 -99.4500 212° Southwest 130 150 10,100  Level Houston Center
Sun 08:57:06 PM 27.4197 -99.4772 224° Southwest 129 148 10,100  Level Houston Center
Sun 08:58:08 PM 27.4006 -99.5097 236° Southwest 127 146 10,100  Level Houston Center
Sun 09:00:00 PM 27.3907 -99.5751 196° South  Level FlightAware Approximate
Sun 09:07:00 PM 27.1435 -99.6554 196° South  Level FlightAware Approximate
Sun 09:08:00 PM 27.1082 -99.6668 196° South  Level FlightAware Approximate
Sun 09:09:00 PM 27.0729 -99.6783 196° South  Level FlightAware Approximate
Sun 09:10:00 PM 27.0375 -99.6897 196° South  Level FlightAware Approximate
Sun 09:11:00 PM 27.0022 -99.7011 196° South  Level FlightAware Approximate
Sun 09:12:00 PM 26.9669 -99.7125 196° South  Level FlightAware Approximate
Sun 09:13:00 PM 26.9316 -99.7239 196° South  Level FlightAware Approximate
Sun 09:14:00 PM 26.8963 -99.7353 196° South  Level FlightAware Approximate
Sun 09:15:00 PM 26.8609 -99.7467 196° South  Level FlightAware Approximate
Sun 09:16:00 PM 26.8256 -99.7581 196° South  Level FlightAware Approximate

Login

Don't have an account? Register now (free) for customized features, flight alerts, and more!